Time;durP1;ratioP1;P1;durP2;ratioP2;P2;SDS_P1;SDS_P2;PMS_P1;PMS_P2;Temp;Humidity;BMP_temperature;BMP_pressure;BME280_temperature;BME280_humidity;BME280_pressure;Samples;Min_cycle;Max_cycle;Signal;HPM_P1;HPM_P2
2023/08/15 00:01:09;;;;;;;3.53;3.03;;;;;;;;;;4997221;28;20081;-47
2023/08/15 00:03:34;;;;;;;4.15;3.45;;;;;;;;;;4996368;28;20101;-43
2023/08/15 00:05:59;;;;;;;7.10;3.30;;;;;;;;;;4981629;28;20042;-44
2023/08/15 00:08:25;;;;;;;5.05;3.22;;;;;;;;;;4997495;28;20061;-44
2023/08/15 00:10:50;;;;;;;7.18;3.33;;;;;;;;;;4998020;28;20046;-44
2023/08/15 00:13:16;;;;;;;4.20;3.05;;;;;;;;;;4994492;28;20783;-44
2023/08/15 00:15:41;;;;;;;5.57;3.05;;;;;;;;;;4997301;28;20087;-43
2023/08/15 00:18:07;;;;;;;5.68;4.72;;;;;;;;;;4998690;28;20034;-44
2023/08/15 00:20:32;;;;;;;7.60;3.83;;;;;;;;;;4978187;28;20545;-43
2023/08/15 00:22:58;;;;;;;5.05;2.90;;;;;;;;;;4997210;28;20038;-44
2023/08/15 00:25:24;;;;;;;4.85;3.80;;;;;;;;;;4995761;28;20280;-45
2023/08/15 00:27:49;;;;;;;4.47;3.10;;;;;;;;;;4998458;28;20085;-43
2023/08/15 00:30:14;;;;;;;5.50;3.13;;;;;;;;;;4992501;28;20034;-43
2023/08/15 00:32:40;;;;;;;3.10;2.80;;;;;;;;;;4996247;28;20030;-43
2023/08/15 00:35:06;;;;;;;5.93;3.20;;;;;;;;;;4994949;28;20046;-44
2023/08/15 00:37:32;;;;;;;5.82;3.00;;;;;;;;;;4996860;28;20057;-43
2023/08/15 00:39:58;;;;;;;2.90;2.70;;;;;;;;;;5028295;28;20050;-44
2023/08/15 00:42:23;;;;;;;5.93;3.35;;;;;;;;;;4996026;28;20050;-48
2023/08/15 00:44:49;;;;;;;4.72;3.00;;;;;;;;;;4992077;28;20030;-44
2023/08/15 00:47:14;;;;;;;4.63;3.25;;;;;;;;;;4998618;28;20034;-44
2023/08/15 00:49:43;;;;;;;5.07;2.88;;;;;;;;;;4996624;28;20025;-45
2023/08/15 00:52:11;;;;;;;4.57;3.20;;;;;;;;;;4991203;28;20121;-46
2023/08/15 00:54:37;;;;;;;7.15;3.42;;;;;;;;;;5005633;28;20037;-45
2023/08/15 00:57:05;;;;;;;4.35;2.97;;;;;;;;;;4994664;28;20512;-45
2023/08/15 00:59:30;;;;;;;4.38;3.25;;;;;;;;;;4992597;28;20158;-48
2023/08/15 01:01:58;;;;;;;3.97;3.00;;;;;;;;;;4988043;28;20066;-43
2023/08/15 01:04:24;;;;;;;5.45;2.95;;;;;;;;;;4990141;28;20110;-45
2023/08/15 01:06:50;;;;;;;4.60;2.92;;;;;;;;;;4993259;28;20059;-43
2023/08/15 01:09:15;;;;;;;6.53;3.15;;;;;;;;;;4998065;28;20089;-45
2023/08/15 01:11:59;;;;;;;3.95;3.03;;;;;;;;;;4993859;28;20034;-44
2023/08/15 01:14:36;;;;;;;3.53;2.65;;;;;;;;;;4995187;28;20472;-47
2023/08/15 01:17:05;;;;;;;3.88;3.33;;;;;;;;;;4996018;28;20088;-43
2023/08/15 01:19:41;;;;;;;4.70;2.67;;;;;;;;;;4980560;28;20399;-43
2023/08/15 01:22:28;;;;;;;6.28;2.90;;;;;;;;;;4962695;28;20181;-48
2023/08/15 01:24:54;;;;;;;3.83;2.85;;;;;;;;;;4976974;28;20061;-42
2023/08/15 01:27:19;;;;;;;6.22;2.47;;;;;;;;;;4995222;28;20038;-44
2023/08/15 01:29:45;;;;;;;5.57;3.03;;;;;;;;;;4994089;28;20555;-43
2023/08/15 01:32:27;;;;;;;6.55;2.97;;;;;;;;;;4997701;28;20026;-47
2023/08/15 01:35:13;;;;;;;;;;;;;;;;;;4994466;28;20062;-45
2023/08/15 01:37:42;;;;;;;3.20;2.90;;;;;;;;;;4996871;28;20001;-47
2023/08/15 01:40:10;;;;;;;8.02;2.88;;;;;;;;;;4998433;28;20046;-44
2023/08/15 01:42:40;;;;;;;3.58;2.80;;;;;;;;;;4987471;28;20037;-44
2023/08/15 01:45:07;;;;;;;8.63;3.15;;;;;;;;;;4979950;28;20034;-45
2023/08/15 01:47:33;;;;;;;6.07;2.80;;;;;;;;;;4995304;28;20038;-44
2023/08/15 01:49:58;;;;;;;4.25;2.85;;;;;;;;;;4993569;28;20042;-49
2023/08/15 01:52:24;;;;;;;6.15;3.03;;;;;;;;;;4998086;28;20468;-46
2023/08/15 01:54:49;;;;;;;4.07;3.05;;;;;;;;;;4994676;28;20045;-44
2023/08/15 01:57:14;;;;;;;3.50;2.58;;;;;;;;;;4996166;28;20054;-43
2023/08/15 01:59:40;;;;;;;2.92;2.67;;;;;;;;;;4992852;28;20069;-43
2023/08/15 02:02:06;;;;;;;7.05;3.00;;;;;;;;;;4984263;28;20030;-44
2023/08/15 02:04:32;;;;;;;3.33;2.90;;;;;;;;;;4991493;28;20030;-44
2023/08/15 02:06:58;;;;;;;5.55;2.92;;;;;;;;;;4977661;28;20038;-46
2023/08/15 02:09:24;;;;;;;5.85;2.97;;;;;;;;;;4984448;28;20049;-47
2023/08/15 02:11:49;;;;;;;4.38;2.70;;;;;;;;;;4994535;28;20055;-45
2023/08/15 02:14:15;;;;;;;4.05;2.63;;;;;;;;;;4975554;28;20443;-43
2023/08/15 02:16:40;;;;;;;5.85;2.65;;;;;;;;;;4994274;28;20034;-44
2023/08/15 02:19:05;;;;;;;2.95;2.63;;;;;;;;;;5009476;28;20053;-43
2023/08/15 02:21:31;;;;;;;3.63;2.70;;;;;;;;;;4994118;28;20504;-45
2023/08/15 02:23:56;;;;;;;4.78;2.75;;;;;;;;;;4994312;28;20030;-45
2023/08/15 02:26:22;;;;;;;2.95;2.65;;;;;;;;;;4993743;28;20069;-44
2023/08/15 02:28:47;;;;;;;4.07;2.80;;;;;;;;;;4993753;28;20838;-44
2023/08/15 02:31:12;;;;;;;22.23;3.30;;;;;;;;;;4976141;28;20488;-42
2023/08/15 02:33:38;;;;;;;2.45;2.25;;;;;;;;;;4972157;28;20392;-43
2023/08/15 02:36:05;;;;;;;3.13;2.67;;;;;;;;;;4990876;28;20042;-44
2023/08/15 02:38:32;;;;;;;3.00;2.55;;;;;;;;;;4993606;28;20262;-43
2023/08/15 02:40:57;;;;;;;4.70;2.47;;;;;;;;;;4992956;28;20042;-47
2023/08/15 02:43:22;;;;;;;3.88;2.58;;;;;;;;;;4993659;28;20045;-43
2023/08/15 02:45:48;;;;;;;2.45;2.22;;;;;;;;;;4992602;28;20078;-44
2023/08/15 02:48:13;;;;;;;4.13;2.88;;;;;;;;;;4995547;28;20030;-46
2023/08/15 02:50:39;;;;;;;5.75;2.30;;;;;;;;;;4993245;28;20512;-43
2023/08/15 02:53:04;;;;;;;2.70;2.50;;;;;;;;;;4977941;28;20065;-43
2023/08/15 02:55:30;;;;;;;6.25;2.30;;;;;;;;;;4993304;28;20049;-44
2023/08/15 02:57:56;;;;;;;2.40;2.20;;;;;;;;;;4993872;28;20026;-45
2023/08/15 03:00:21;;;;;;;4.72;2.70;;;;;;;;;;4992336;28;20046;-43
2023/08/15 03:02:47;;;;;;;3.45;2.58;;;;;;;;;;4994230;28;20034;-43
2023/08/15 03:05:12;;;;;;;2.67;2.38;;;;;;;;;;4992219;28;20526;-47
2023/08/15 03:07:37;;;;;;;3.72;2.50;;;;;;;;;;4992915;28;20385;-45
2023/08/15 03:10:03;;;;;;;3.50;2.30;;;;;;;;;;4989230;28;20037;-43
2023/08/15 03:12:29;;;;;;;2.30;2.08;;;;;;;;;;4974340;28;20026;-43
2023/08/15 03:14:57;;;;;;;4.45;2.30;;;;;;;;;;4986029;28;20126;-44
2023/08/15 03:17:23;;;;;;;2.40;2.20;;;;;;;;;;4972696;28;20449;-44
2023/08/15 03:19:48;;;;;;;4.90;2.38;;;;;;;;;;5000037;28;20081;-47
2023/08/15 03:22:14;;;;;;;4.32;2.45;;;;;;;;;;4994151;28;20468;-43
2023/08/15 03:24:39;;;;;;;4.45;2.28;;;;;;;;;;4987011;28;20026;-47
2023/08/15 03:27:04;;;;;;;3.00;2.55;;;;;;;;;;4996415;28;20480;-47
2023/08/15 03:29:30;;;;;;;3.55;2.65;;;;;;;;;;4993984;28;20026;-45
2023/08/15 03:31:57;;;;;;;5.97;2.42;;;;;;;;;;4977426;28;20125;-45
2023/08/15 03:34:23;;;;;;;4.28;2.13;;;;;;;;;;4994197;28;20077;-44
2023/08/15 03:36:49;;;;;;;4.13;2.17;;;;;;;;;;4995665;28;20042;-46
2023/08/15 03:39:14;;;;;;;4.05;2.42;;;;;;;;;;4997838;28;20469;-46
2023/08/15 03:41:40;;;;;;;4.72;2.60;;;;;;;;;;4999526;28;20080;-46
2023/08/15 03:44:05;;;;;;;4.13;2.30;;;;;;;;;;4998746;28;20047;-43
2023/08/15 03:46:31;;;;;;;5.90;2.38;;;;;;;;;;4996539;28;20042;-42
2023/08/15 03:48:56;;;;;;;3.13;2.13;;;;;;;;;;4998134;28;20022;-48
2023/08/15 03:51:22;;;;;;;6.63;2.10;;;;;;;;;;4997436;28;20035;-43
2023/08/15 03:53:47;;;;;;;4.30;2.38;;;;;;;;;;4998441;28;20030;-43
2023/08/15 03:56:12;;;;;;;4.13;1.90;;;;;;;;;;4992577;28;20427;-45
2023/08/15 03:58:38;;;;;;;2.70;2.25;;;;;;;;;;4998607;28;20034;-43
2023/08/15 04:01:04;;;;;;;2.78;2.38;;;;;;;;;;4998214;28;20097;-42
2023/08/15 04:03:29;;;;;;;4.60;2.38;;;;;;;;;;4996972;28;20096;-45
2023/08/15 04:05:55;;;;;;;2.00;1.90;;;;;;;;;;4997100;28;20038;-43
2023/08/15 04:08:21;;;;;;;3.80;2.00;;;;;;;;;;4996122;28;20034;-44
2023/08/15 04:10:46;;;;;;;6.47;2.33;;;;;;;;;;4997262;28;20038;-43
2023/08/15 04:13:13;;;;;;;4.75;2.22;;;;;;;;;;4996441;28;20101;-47
2023/08/15 04:15:39;;;;;;;3.33;2.45;;;;;;;;;;4997608;28;20404;-44
2023/08/15 04:18:05;;;;;;;4.13;2.30;;;;;;;;;;4998306;28;20023;-44
2023/08/15 04:20:31;;;;;;;4.38;2.30;;;;;;;;;;4996179;28;20085;-43
2023/08/15 04:22:56;;;;;;;6.32;2.55;;;;;;;;;;4996680;28;20561;-46
2023/08/15 04:25:22;;;;;;;4.13;2.20;;;;;;;;;;4995959;28;20129;-42
2023/08/15 04:27:47;;;;;;;3.35;2.20;;;;;;;;;;4996044;28;20057;-43
2023/08/15 04:30:13;;;;;;;2.17;1.98;;;;;;;;;;4995308;28;20042;-43
2023/08/15 04:32:38;;;;;;;5.28;2.35;;;;;;;;;;4995167;28;20062;-48
2023/08/15 04:35:04;;;;;;;7.93;2.22;;;;;;;;;;4980465;28;20062;-43
2023/08/15 04:37:29;;;;;;;5.50;2.80;;;;;;;;;;4994424;28;20338;-45
2023/08/15 04:39:55;;;;;;;4.13;2.30;;;;;;;;;;4996142;28;20477;-43
2023/08/15 04:42:20;;;;;;;2.28;2.00;;;;;;;;;;4997703;28;20392;-47
2023/08/15 04:44:46;;;;;;;5.32;2.28;;;;;;;;;;4993639;28;20030;-45
2023/08/15 04:47:11;;;;;;;2.60;2.40;;;;;;;;;;4995681;28;20026;-44
2023/08/15 04:49:37;;;;;;;2.50;2.28;;;;;;;;;;5008108;28;20041;-47
2023/08/15 04:52:02;;;;;;;2.17;1.98;;;;;;;;;;4997488;28;20031;-44
2023/08/15 04:54:28;;;;;;;7.15;2.70;;;;;;;;;;4996786;28;20026;-46
2023/08/15 04:56:53;;;;;;;4.07;2.45;;;;;;;;;;4994921;28;20031;-45
2023/08/15 04:59:19;;;;;;;2.20;2.00;;;;;;;;;;4997099;28;20035;-42
2023/08/15 05:01:45;;;;;;;5.07;2.15;;;;;;;;;;4996160;28;20041;-46
2023/08/15 05:04:10;;;;;;;8.75;2.20;;;;;;;;;;4998566;28;20034;-44
2023/08/15 05:06:36;;;;;;;3.25;2.30;;;;;;;;;;4997367;28;20614;-44
2023/08/15 05:09:01;;;;;;;4.95;2.20;;;;;;;;;;4979479;28;20035;-45
2023/08/15 05:11:27;;;;;;;3.20;2.40;;;;;;;;;;4996123;28;20035;-42
2023/08/15 05:13:52;;;;;;;2.75;2.35;;;;;;;;;;5013783;28;20113;-42
2023/08/15 05:16:17;;;;;;;2.47;2.28;;;;;;;;;;4994650;28;20038;-44
2023/08/15 05:18:43;;;;;;;2.40;2.20;;;;;;;;;;4980658;28;20027;-44
2023/08/15 05:21:08;;;;;;;5.32;2.03;;;;;;;;;;4996639;28;20035;-43
2023/08/15 05:23:34;;;;;;;5.18;2.30;;;;;;;;;;4994080;28;20034;-43
2023/08/15 05:25:59;;;;;;;3.40;2.10;;;;;;;;;;4995126;28;20034;-44
2023/08/15 05:28:24;;;;;;;10.13;2.00;;;;;;;;;;4996821;28;20021;-43
2023/08/15 05:30:50;;;;;;;3.90;2.28;;;;;;;;;;4977604;28;20031;-47
2023/08/15 05:33:15;;;;;;;4.53;2.38;;;;;;;;;;4997159;28;20022;-43
2023/08/15 05:35:41;;;;;;;7.22;2.28;;;;;;;;;;4979693;28;20455;-44
2023/08/15 05:38:06;;;;;;;3.80;2.35;;;;;;;;;;4996967;28;20045;-43
2023/08/15 05:40:33;;;;;;;3.25;2.20;;;;;;;;;;4976144;28;20050;-44
2023/08/15 05:42:58;;;;;;;4.20;1.88;;;;;;;;;;4996260;28;20053;-42
2023/08/15 05:45:24;;;;;;;6.88;2.80;;;;;;;;;;4977032;28;20042;-43
2023/08/15 05:47:49;;;;;;;2.53;1.92;;;;;;;;;;5012953;28;20041;-43
2023/08/15 05:50:15;;;;;;;3.28;2.08;;;;;;;;;;4994434;28;20031;-43
2023/08/15 05:52:40;;;;;;;2.78;2.10;;;;;;;;;;4998083;28;20030;-45
2023/08/15 05:55:06;;;;;;;7.13;2.60;;;;;;;;;;4994224;28;20062;-46
2023/08/15 05:57:31;;;;;;;4.13;1.90;;;;;;;;;;4994520;28;20033;-45
2023/08/15 05:59:57;;;;;;;5.03;1.95;;;;;;;;;;4994120;28;20294;-45
2023/08/15 06:02:22;;;;;;;5.03;2.20;;;;;;;;;;4995639;28;20033;-47
2023/08/15 06:04:48;;;;;;;3.88;2.38;;;;;;;;;;4996112;28;20030;-44
2023/08/15 06:07:13;;;;;;;2.00;1.90;;;;;;;;;;4991092;28;20157;-45
2023/08/15 06:09:39;;;;;;;3.78;2.13;;;;;;;;;;4993983;28;20685;-43
2023/08/15 06:12:05;;;;;;;5.57;2.10;;;;;;;;;;4996410;28;20115;-44
2023/08/15 06:14:31;;;;;;;2.35;2.17;;;;;;;;;;4997492;28;20026;-42
2023/08/15 06:16:57;;;;;;;4.95;2.25;;;;;;;;;;4992894;28;20042;-45
2023/08/15 06:19:23;;;;;;;3.80;2.08;;;;;;;;;;4994148;28;20022;-46
2023/08/15 06:21:48;;;;;;;4.43;2.50;;;;;;;;;;4994047;28;20756;-45
2023/08/15 06:24:14;;;;;;;4.40;2.63;;;;;;;;;;4994563;28;20085;-44
2023/08/15 06:26:40;;;;;;;4.55;2.63;;;;;;;;;;4994920;28;20118;-43
2023/08/15 06:29:06;;;;;;;4.07;2.35;;;;;;;;;;4993492;28;20499;-43
2023/08/15 06:31:33;;;;;;;5.45;2.63;;;;;;;;;;4995364;28;20046;-43
2023/08/15 06:34:00;;;;;;;3.95;2.55;;;;;;;;;;4996850;28;20480;-44
2023/08/15 06:36:25;;;;;;;3.90;2.40;;;;;;;;;;4990397;28;20125;-47
2023/08/15 06:38:51;;;;;;;5.65;2.20;;;;;;;;;;5005720;28;20504;-47
2023/08/15 06:41:16;;;;;;;6.10;2.85;;;;;;;;;;4996433;28;20034;-44
2023/08/15 06:43:43;;;;;;;6.63;2.55;;;;;;;;;;4995459;28;20510;-43
2023/08/15 06:46:08;;;;;;;5.45;2.20;;;;;;;;;;4994810;28;20117;-42
2023/08/15 06:48:34;;;;;;;5.85;2.13;;;;;;;;;;4996116;28;20114;-43
2023/08/15 06:50:59;;;;;;;4.85;2.40;;;;;;;;;;4996712;28;20103;-44
2023/08/15 06:53:25;;;;;;;3.33;2.50;;;;;;;;;;4993515;28;20181;-43
2023/08/15 06:55:51;;;;;;;4.20;2.38;;;;;;;;;;4995000;28;20042;-45
2023/08/15 06:58:17;;;;;;;7.47;2.63;;;;;;;;;;4992345;28;20116;-47
2023/08/15 07:00:44;;;;;;;6.35;2.75;;;;;;;;;;4995966;28;20546;-43
2023/08/15 07:03:10;;;;;;;7.80;2.33;;;;;;;;;;4995438;28;20023;-45
2023/08/15 07:05:35;;;;;;;2.40;2.20;;;;;;;;;;4994431;28;20114;-47
2023/08/15 07:08:03;;;;;;;2.55;2.13;;;;;;;;;;4992344;28;20485;-42
2023/08/15 07:10:29;;;;;;;4.47;2.25;;;;;;;;;;4989796;28;20046;-45
2023/08/15 07:12:54;;;;;;;8.90;2.80;;;;;;;;;;4990259;28;20563;-46
2023/08/15 07:15:20;;;;;;;2.55;2.30;;;;;;;;;;4992817;28;20120;-44
2023/08/15 07:17:45;;;;;;;3.55;2.30;;;;;;;;;;4992062;28;20034;-49
2023/08/15 07:20:14;;;;;;;7.28;2.78;;;;;;;;;;4988326;28;21846;-46
2023/08/15 07:22:40;;;;;;;3.30;2.22;;;;;;;;;;4988968;28;20026;-47
2023/08/15 07:25:06;;;;;;;3.58;2.20;;;;;;;;;;4993400;28;20042;-46
2023/08/15 07:27:32;;;;;;;3.38;2.17;;;;;;;;;;4993349;28;20023;-47
2023/08/15 07:29:58;;;;;;;3.85;2.17;;;;;;;;;;4989344;28;20374;-44
2023/08/15 07:32:23;;;;;;;5.05;2.17;;;;;;;;;;4974382;28;20536;-45
2023/08/15 07:34:49;;;;;;;2.58;2.15;;;;;;;;;;4974656;28;20053;-44
2023/08/15 07:37:15;;;;;;;3.90;2.10;;;;;;;;;;4992682;28;20038;-47
2023/08/15 07:39:40;;;;;;;3.35;2.20;;;;;;;;;;4994025;28;20027;-43
2023/08/15 07:42:06;;;;;;;5.93;1.77;;;;;;;;;;4975827;28;20032;-46
2023/08/15 07:44:31;;;;;;;3.33;2.08;;;;;;;;;;4991063;28;20026;-42
2023/08/15 07:46:57;;;;;;;3.58;2.10;;;;;;;;;;4956843;28;20038;-45
2023/08/15 07:49:22;;;;;;;3.35;2.15;;;;;;;;;;4974126;28;20018;-42
2023/08/15 07:51:48;;;;;;;3.28;2.47;;;;;;;;;;4988599;28;20050;-47
2023/08/15 07:54:14;;;;;;;3.22;2.17;;;;;;;;;;4992335;28;20388;-44
2023/08/15 07:56:39;;;;;;;2.80;2.05;;;;;;;;;;4992536;28;20045;-42
2023/08/15 07:59:04;;;;;;;6.20;2.03;;;;;;;;;;4994757;28;20058;-44
2023/08/15 08:01:30;;;;;;;3.15;2.10;;;;;;;;;;4990707;28;20038;-48
2023/08/15 08:03:55;;;;;;;7.15;2.25;;;;;;;;;;4983081;28;20058;-45
2023/08/15 08:06:21;;;;;;;2.83;2.13;;;;;;;;;;4993178;28;20042;-45
2023/08/15 08:08:47;;;;;;;5.32;2.30;;;;;;;;;;4992178;28;20530;-46
2023/08/15 08:11:13;;;;;;;2.60;2.20;;;;;;;;;;4991543;28;20533;-45
2023/08/15 08:13:38;;;;;;;5.68;2.10;;;;;;;;;;4994168;28;20033;-43
2023/08/15 08:16:04;;;;;;;2.25;1.98;;;;;;;;;;4992801;28;20046;-44
2023/08/15 08:18:30;;;;;;;4.45;2.30;;;;;;;;;;4975606;28;20472;-47
2023/08/15 08:20:55;;;;;;;4.35;2.22;;;;;;;;;;4988115;28;20448;-45
2023/08/15 08:23:20;;;;;;;3.85;2.40;;;;;;;;;;4997866;28;20086;-47
2023/08/15 08:25:46;;;;;;;3.03;2.33;;;;;;;;;;4997819;28;20057;-43
2023/08/15 08:28:13;;;;;;;4.85;2.30;;;;;;;;;;4997580;28;20023;-44
2023/08/15 08:30:38;;;;;;;4.82;2.20;;;;;;;;;;4980359;28;20050;-44
2023/08/15 08:33:04;;;;;;;3.50;1.67;;;;;;;;;;4997063;28;20481;-44
2023/08/15 08:35:29;;;;;;;2.33;2.13;;;;;;;;;;4976928;28;20042;-49
2023/08/15 08:37:55;;;;;;;3.00;1.60;;;;;;;;;;4996313;28;20684;-46
2023/08/15 08:40:20;;;;;;;3.95;1.90;;;;;;;;;;4989599;28;20313;-43
2023/08/15 08:42:46;;;;;;;5.88;2.20;;;;;;;;;;4980543;28;20030;-46
2023/08/15 08:45:12;;;;;;;4.13;1.90;;;;;;;;;;4994959;28;20381;-47
2023/08/15 08:47:41;;;;;;;2.67;1.85;;;;;;;;;;4994332;28;20524;-44
2023/08/15 08:50:09;;;;;;;4.00;2.03;;;;;;;;;;4997386;28;20030;-47
2023/08/15 08:52:39;;;;;;;3.33;1.88;;;;;;;;;;4993215;28;20041;-45
2023/08/15 08:55:05;;;;;;;2.88;1.70;;;;;;;;;;4990991;28;20039;-45
2023/08/15 08:57:32;;;;;;;3.55;1.55;;;;;;;;;;4981581;28;20022;-45
2023/08/15 09:00:00;;;;;;;6.18;2.00;;;;;;;;;;4996991;28;20075;-46
2023/08/15 09:02:25;;;;;;;2.05;1.73;;;;;;;;;;4995948;28;20397;-44
2023/08/15 09:04:53;;;;;;;6.03;2.10;;;;;;;;;;4995623;28;20038;-44
2023/08/15 09:07:19;;;;;;;6.38;1.90;;;;;;;;;;4995998;28;20575;-46
2023/08/15 09:09:44;;;;;;;4.65;1.92;;;;;;;;;;4992453;28;20019;-47
2023/08/15 09:12:37;;;;;;;3.05;1.85;;;;;;;;;;4994256;28;20030;-49
2023/08/15 09:15:10;;;;;;;7.00;1.90;;;;;;;;;;4998516;28;20496;-44
2023/08/15 09:17:39;;;;;;;2.30;1.70;;;;;;;;;;4988167;28;20122;-47
2023/08/15 09:20:10;;;;;;;6.90;1.70;;;;;;;;;;4989282;28;20501;-45
2023/08/15 09:22:37;;;;;;;6.80;2.00;;;;;;;;;;4997552;28;20030;-48
2023/08/15 09:25:04;;;;;;;7.10;1.77;;;;;;;;;;4995615;28;20117;-49
2023/08/15 09:27:29;;;;;;;2.88;2.10;;;;;;;;;;4998441;28;20026;-44
2023/08/15 09:29:55;;;;;;;3.47;2.20;;;;;;;;;;4993687;28;20493;-46
2023/08/15 09:32:21;;;;;;;2.25;2.00;;;;;;;;;;4979542;28;20026;-48
2023/08/15 09:34:47;;;;;;;3.70;1.90;;;;;;;;;;4977505;28;20034;-45
2023/08/15 09:37:13;;;;;;;4.25;1.60;;;;;;;;;;4996466;28;20034;-44
2023/08/15 09:39:39;;;;;;;3.10;1.88;;;;;;;;;;4994513;28;20026;-42
2023/08/15 09:42:05;;;;;;;5.18;1.83;;;;;;;;;;4988036;28;20641;-44
2023/08/15 09:44:33;;;;;;;8.07;2.00;;;;;;;;;;4992802;28;20073;-45
2023/08/15 09:47:00;;;;;;;2.25;1.77;;;;;;;;;;4994592;28;20200;-45
2023/08/15 09:49:28;;;;;;;2.13;1.60;;;;;;;;;;5024880;28;20022;-44
2023/08/15 09:51:53;;;;;;;2.53;1.77;;;;;;;;;;4993456;28;20042;-50
2023/08/15 09:54:21;;;;;;;1.77;1.45;;;;;;;;;;4994179;28;20022;-47
2023/08/15 09:56:46;;;;;;;3.13;1.40;;;;;;;;;;4995820;28;20105;-48
2023/08/15 09:59:12;;;;;;;7.05;1.83;;;;;;;;;;4992645;28;20026;-46
2023/08/15 10:01:40;;;;;;;3.25;1.80;;;;;;;;;;4977729;28;20031;-43
2023/08/15 10:04:09;;;;;;;2.95;1.77;;;;;;;;;;5023766;28;20114;-45
2023/08/15 10:06:35;;;;;;;1.98;1.58;;;;;;;;;;4996064;28;20046;-44
2023/08/15 10:09:03;;;;;;;5.28;1.77;;;;;;;;;;4995913;28;20022;-42
2023/08/15 10:11:31;;;;;;;3.28;1.70;;;;;;;;;;4994628;28;20034;-44
2023/08/15 10:13:57;;;;;;;1.40;1.30;;;;;;;;;;4989370;28;20037;-43
2023/08/15 10:16:23;;;;;;;6.35;1.48;;;;;;;;;;4994668;28;20034;-43
2023/08/15 10:18:57;;;;;;;2.35;1.80;;;;;;;;;;4995719;28;20034;-42
2023/08/15 10:21:23;;;;;;;3.67;1.50;;;;;;;;;;4992508;28;20069;-43
2023/08/15 10:23:52;;;;;;;3.53;2.10;;;;;;;;;;4996939;28;20396;-47
2023/08/15 10:26:17;;;;;;;2.00;1.80;;;;;;;;;;4993460;28;20488;-43
2023/08/15 10:28:46;;;;;;;2.85;1.70;;;;;;;;;;4993964;28;20109;-43
2023/08/15 10:31:11;;;;;;;5.55;1.60;;;;;;;;;;4987696;28;20030;-47
2023/08/15 10:33:37;;;;;;;1.70;1.60;;;;;;;;;;5010286;28;20034;-48
2023/08/15 10:36:02;;;;;;;3.53;1.60;;;;;;;;;;4996572;28;20042;-47
2023/08/15 10:38:46;;;;;;;4.10;1.50;;;;;;;;;;4994001;28;20473;-47
2023/08/15 10:41:16;;;;;;;2.13;1.70;;;;;;;;;;4994835;28;20570;-45
2023/08/15 10:43:53;;;;;;;6.67;1.70;;;;;;;;;;4996918;28;20065;-43
2023/08/15 10:46:25;;;;;;;5.00;1.50;;;;;;;;;;4989768;28;20997;-45
2023/08/15 10:48:58;;;;;;;2.13;1.50;;;;;;;;;;4991869;28;20034;-43
2023/08/15 10:51:40;;;;;;;2.90;1.90;;;;;;;;;;4990379;28;20038;-45
2023/08/15 10:54:09;;;;;;;2.83;1.80;;;;;;;;;;4994057;28;20031;-49
2023/08/15 10:56:37;;;;;;;2.30;1.42;;;;;;;;;;5028355;28;20153;-47
2023/08/15 10:59:13;;;;;;;2.97;1.38;;;;;;;;;;4994563;28;20037;-42
2023/08/15 11:01:41;;;;;;;4.10;1.40;;;;;;;;;;4991172;28;20563;-45
2023/08/15 11:04:08;;;;;;;3.67;1.48;;;;;;;;;;4992251;28;20045;-45
2023/08/15 11:06:46;;;;;;;1.55;1.40;;;;;;;;;;4989201;28;20046;-47
2023/08/15 11:09:12;;;;;;;9.43;2.67;;;;;;;;;;4989091;28;20018;-44
2023/08/15 11:11:38;;;;;;;3.28;1.98;;;;;;;;;;4983529;28;20514;-48
2023/08/15 11:14:03;;;;;;;1.98;1.70;;;;;;;;;;4988605;28;20053;-49
2023/08/15 11:16:29;;;;;;;4.05;1.60;;;;;;;;;;4973091;28;20090;-47
2023/08/15 11:18:57;;;;;;;2.20;1.30;;;;;;;;;;4993488;28;20034;-47
2023/08/15 11:21:27;;;;;;;2.25;1.38;;;;;;;;;;4986512;28;20117;-45
2023/08/15 11:23:54;;;;;;;1.38;1.30;;;;;;;;;;4995045;28;20030;-48
2023/08/15 11:26:23;;;;;;;9.73;2.10;;;;;;;;;;4972979;28;20049;-45
2023/08/15 11:28:48;;;;;;;2.22;1.35;;;;;;;;;;4985950;28;20034;-46
2023/08/15 11:31:16;;;;;;;1.45;1.35;;;;;;;;;;4972106;28;20046;-44
2023/08/15 11:33:42;;;;;;;1.40;1.30;;;;;;;;;;4988717;28;20540;-45
2023/08/15 11:36:09;;;;;;;1.42;1.33;;;;;;;;;;4988092;28;20097;-51
2023/08/15 11:38:36;;;;;;;7.65;1.60;;;;;;;;;;4975046;28;20811;-45
2023/08/15 11:41:02;;;;;;;1.52;1.40;;;;;;;;;;4990178;28;20129;-44
2023/08/15 11:43:32;;;;;;;2.53;1.80;;;;;;;;;;4986458;28;20042;-45
2023/08/15 11:46:02;;;;;;;5.90;1.80;;;;;;;;;;4990297;28;20444;-44
2023/08/15 11:48:29;;;;;;;1.95;1.67;;;;;;;;;;5005937;28;20029;-45
2023/08/15 11:50:55;;;;;;;3.30;1.27;;;;;;;;;;4990353;28;20575;-44
2023/08/15 11:53:20;;;;;;;2.08;1.40;;;;;;;;;;4977159;28;20125;-45
2023/08/15 11:55:47;;;;;;;1.77;1.63;;;;;;;;;;4993085;28;20042;-46
2023/08/15 11:58:28;;;;;;;1.40;1.30;;;;;;;;;;4994571;28;20037;-45
2023/08/15 12:00:55;;;;;;;3.80;2.10;;;;;;;;;;4994811;28;20047;-44
2023/08/15 12:03:20;;;;;;;9.70;1.70;;;;;;;;;;4997226;28;20030;-44
2023/08/15 12:05:47;;;;;;;3.28;2.50;;;;;;;;;;4987903;28;20045;-44
2023/08/15 12:08:16;;;;;;;1.95;1.63;;;;;;;;;;5018431;28;20026;-46
2023/08/15 12:10:43;;;;;;;4.53;1.70;;;;;;;;;;4993694;28;20044;-43
2023/08/15 12:13:09;;;;;;;1.60;1.50;;;;;;;;;;4990711;28;20026;-44
2023/08/15 12:15:34;;;;;;;5.35;1.75;;;;;;;;;;5010620;28;20106;-48
2023/08/15 12:18:00;;;;;;;1.20;1.13;;;;;;;;;;4976315;28;20033;-44
2023/08/15 12:20:25;;;;;;;1.55;1.40;;;;;;;;;;4993967;28;20053;-44
2023/08/15 12:22:50;;;;;;;3.60;1.50;;;;;;;;;;4991816;28;20093;-44
2023/08/15 12:25:16;;;;;;;1.50;1.40;;;;;;;;;;5025539;28;20038;-48
2023/08/15 12:27:41;;;;;;;3.58;1.33;;;;;;;;;;5006472;28;20056;-44
2023/08/15 12:30:07;;;;;;;2.13;1.58;;;;;;;;;;4970914;28;20096;-45
2023/08/15 12:32:33;;;;;;;3.10;1.35;;;;;;;;;;4985260;28;20030;-44
2023/08/15 12:34:59;;;;;;;1.15;1.13;;;;;;;;;;4994116;28;20080;-46
2023/08/15 12:37:25;;;;;;;3.92;1.77;;;;;;;;;;4997499;28;20057;-44
2023/08/15 12:39:50;;;;;;;9.52;1.48;;;;;;;;;;4996170;28;20029;-44
2023/08/15 12:42:15;;;;;;;3.25;1.30;;;;;;;;;;4989050;28;20081;-47
2023/08/15 12:44:42;;;;;;;2.10;1.77;;;;;;;;;;5024020;28;20487;-44
2023/08/15 12:47:09;;;;;;;1.63;1.42;;;;;;;;;;4993431;28;20042;-45
2023/08/15 12:49:38;;;;;;;2.67;1.25;;;;;;;;;;4988155;28;20019;-44
2023/08/15 12:52:06;;;;;;;2.45;1.40;;;;;;;;;;4996523;28;20530;-46
2023/08/15 12:54:33;;;;;;;4.45;1.50;;;;;;;;;;4993754;28;20038;-45
2023/08/15 12:56:58;;;;;;;1.30;1.20;;;;;;;;;;4995218;28;20495;-43
2023/08/15 12:59:24;;;;;;;3.05;1.70;;;;;;;;;;5008511;28;20125;-44
2023/08/15 13:01:49;;;;;;;1.83;1.40;;;;;;;;;;4991191;28;20034;-46
2023/08/15 13:04:15;;;;;;;1.50;1.40;;;;;;;;;;4995024;28;20041;-46
2023/08/15 13:06:41;;;;;;;2.35;1.27;;;;;;;;;;4991428;28;20045;-47
2023/08/15 13:09:09;;;;;;;1.88;1.48;;;;;;;;;;5021689;28;20026;-47
2023/08/15 13:11:36;;;;;;;1.83;1.45;;;;;;;;;;4992887;28;20034;-44
2023/08/15 13:14:03;;;;;;;1.50;1.40;;;;;;;;;;4996224;28;20026;-44
2023/08/15 13:16:28;;;;;;;3.00;1.40;;;;;;;;;;4994797;28;20040;-44
2023/08/15 13:18:54;;;;;;;4.32;1.77;;;;;;;;;;5012556;28;20033;-46
2023/08/15 13:21:19;;;;;;;4.97;1.45;;;;;;;;;;4994588;28;20102;-44
2023/08/15 13:23:44;;;;;;;4.40;1.88;;;;;;;;;;4996372;28;20090;-46
2023/08/15 13:26:10;;;;;;;8.07;1.65;;;;;;;;;;4997672;28;20074;-46
2023/08/15 13:28:35;;;;;;;4.40;1.65;;;;;;;;;;4977725;28;20019;-45
2023/08/15 13:31:01;;;;;;;2.58;1.50;;;;;;;;;;4992839;28;20101;-45
2023/08/15 13:33:26;;;;;;;2.97;1.75;;;;;;;;;;4998447;28;20473;-44
2023/08/15 13:35:51;;;;;;;1.75;1.63;;;;;;;;;;4995508;28;20035;-47
2023/08/15 13:38:17;;;;;;;7.07;1.80;;;;;;;;;;4995245;28;20037;-44
2023/08/15 13:40:42;;;;;;;2.58;1.55;;;;;;;;;;4975819;28;20082;-45
2023/08/15 13:43:08;;;;;;;4.65;1.60;;;;;;;;;;4996294;28;20384;-45
2023/08/15 13:45:33;;;;;;;1.98;1.35;;;;;;;;;;4987271;28;20539;-47
2023/08/15 13:48:00;;;;;;;2.20;1.65;;;;;;;;;;4993182;28;20042;-45
2023/08/15 13:50:26;;;;;;;3.78;1.70;;;;;;;;;;4977609;28;20121;-43
2023/08/15 13:52:51;;;;;;;4.88;1.55;;;;;;;;;;4995572;28;20066;-44
2023/08/15 13:55:16;;;;;;;2.60;1.40;;;;;;;;;;4959402;28;20044;-45
2023/08/15 13:57:42;;;;;;;3.60;1.40;;;;;;;;;;4996066;28;20061;-45
2023/08/15 14:00:08;;;;;;;3.05;1.90;;;;;;;;;;4977194;28;20109;-45
2023/08/15 14:02:34;;;;;;;3.33;1.55;;;;;;;;;;4982769;28;20030;-44
2023/08/15 14:04:59;;;;;;;4.53;1.40;;;;;;;;;;4994061;28;20034;-44
2023/08/15 14:07:25;;;;;;;3.88;1.40;;;;;;;;;;4993948;28;20022;-45
2023/08/15 14:09:50;;;;;;;1.40;1.30;;;;;;;;;;4976448;28;20030;-45
2023/08/15 14:12:15;;;;;;;8.63;1.95;;;;;;;;;;4996634;28;20034;-46
2023/08/15 14:14:41;;;;;;;1.73;1.50;;;;;;;;;;4994803;28;20034;-47
2023/08/15 14:17:07;;;;;;;5.75;1.40;;;;;;;;;;5007525;28;20080;-44
2023/08/15 14:19:32;;;;;;;5.50;1.35;;;;;;;;;;4995480;28;20168;-46
2023/08/15 14:21:58;;;;;;;3.33;1.50;;;;;;;;;;4995015;28;20077;-44
2023/08/15 14:24:23;;;;;;;5.95;1.40;;;;;;;;;;4995220;28;20027;-43
2023/08/15 14:26:49;;;;;;;23.77;2.15;;;;;;;;;;4991807;28;20034;-45
2023/08/15 14:29:15;;;;;;;5.80;1.40;;;;;;;;;;4984355;28;20034;-44
2023/08/15 14:31:40;;;;;;;1.88;1.50;;;;;;;;;;4994951;28;20114;-44
2023/08/15 14:34:06;;;;;;;1.90;1.50;;;;;;;;;;5023293;28;20081;-46
2023/08/15 14:36:31;;;;;;;1.48;1.38;;;;;;;;;;4990419;28;20526;-45
2023/08/15 14:38:56;;;;;;;2.20;1.38;;;;;;;;;;4994496;28;20538;-46